createdAt,value
2023-06-22T00:00:22.000Z,23.1
2023-06-22T00:02:55.000Z,23.1
2023-06-22T00:04:38.608Z,23.2
2023-06-22T00:05:53.820Z,23.2
2023-06-22T00:06:42.000Z,23.2
2023-06-22T00:07:58.000Z,23.2
2023-06-22T00:09:42.407Z,23.2
2023-06-22T00:10:31.000Z,23.2
2023-06-22T00:11:47.000Z,23.2
2023-06-22T00:13:30.994Z,23.1
2023-06-22T00:14:19.000Z,23.2
2023-06-22T00:16:03.385Z,23.1
2023-06-22T00:16:52.000Z,23.1
2023-06-22T00:18:08.000Z,23.1
2023-06-22T00:19:24.000Z,23.1
2023-06-22T00:20:40.000Z,23.1
2023-06-22T00:21:56.000Z,23.1
2023-06-22T00:23:12.000Z,23.1
2023-06-22T00:24:55.773Z,23.1
2023-06-22T00:26:11.969Z,23.1
2023-06-22T00:27:28.408Z,23.1
2023-06-22T00:28:16.000Z,23.1
2023-06-22T00:29:33.000Z,23.1
2023-06-22T00:30:49.000Z,23.1
2023-06-22T00:32:32.948Z,23.1
2023-06-22T00:33:21.000Z,23.1
2023-06-22T00:34:37.000Z,23.1
2023-06-22T00:36:21.535Z,23.1
2023-06-22T00:37:10.000Z,23.1
2023-06-22T00:38:25.000Z,23.1
2023-06-22T00:39:41.000Z,23.1
2023-06-22T00:40:57.000Z,23.1
2023-06-22T00:42:14.000Z,23.1
2023-06-22T00:43:30.000Z,23
2023-06-22T00:44:46.000Z,23.1
2023-06-22T00:46:02.000Z,23.1
2023-06-22T00:47:18.000Z,23.1
2023-06-22T00:48:35.000Z,23.1
2023-06-22T00:49:51.000Z,23.1
2023-06-22T00:51:34.902Z,23.1
2023-06-22T00:52:51.098Z,23.1
2023-06-22T00:53:39.000Z,23.1
2023-06-22T00:54:55.000Z,23.1
2023-06-22T00:56:11.000Z,23.1
2023-06-22T00:57:54.899Z,23.1
2023-06-22T00:58:43.000Z,23.1
2023-06-22T00:59:59.000Z,23.1
2023-06-22T01:01:16.000Z,23
2023-06-22T01:02:31.000Z,23
2023-06-22T01:03:47.000Z,23
2023-06-22T01:05:03.000Z,23
2023-06-22T01:06:19.000Z,23
2023-06-22T01:08:03.489Z,23
2023-06-22T01:09:19.685Z,23
2023-06-22T01:10:08.000Z,23
2023-06-22T01:11:24.000Z,23
2023-06-22T01:12:40.000Z,23
2023-06-22T01:13:20.000Z,23
2023-06-22T01:13:57.000Z,23
2023-06-22T01:15:13.000Z,23
2023-06-22T01:15:53.000Z,22.9
2023-06-22T01:16:29.000Z,23
2023-06-22T01:18:13.053Z,23
2023-06-22T01:19:00.000Z,23
2023-06-22T01:21:33.000Z,22.9
2023-06-22T01:24:05.000Z,22.9
2023-06-22T01:25:21.000Z,22.9
2023-06-22T01:27:05.426Z,22.9
2023-06-22T01:27:54.000Z,22.9
2023-06-22T01:29:10.000Z,23
2023-06-22T01:30:26.000Z,22.9
2023-06-22T01:31:42.000Z,22.9
2023-06-22T01:32:58.000Z,22.9
2023-06-22T01:34:15.000Z,23
2023-06-22T01:35:57.799Z,23
2023-06-22T01:36:46.000Z,22.9
2023-06-22T01:38:02.000Z,22.9
2023-06-22T01:39:18.000Z,22.9
2023-06-22T01:40:35.000Z,22.9
2023-06-22T01:41:15.000Z,22.9
2023-06-22T01:41:51.000Z,22.9
2023-06-22T01:43:34.960Z,22.9
2023-06-22T01:43:48.000Z,22.8
2023-06-22T01:44:51.153Z,22.9
2023-06-22T01:45:03.000Z,22.8
2023-06-22T01:45:39.000Z,22.9
2023-06-22T01:46:56.000Z,22.9
2023-06-22T01:49:28.000Z,22.8
2023-06-22T01:50:08.000Z,22.7
2023-06-22T01:53:43.527Z,22.8
2023-06-22T01:54:32.000Z,22.8
2023-06-22T01:55:48.000Z,22.7
2023-06-22T01:58:20.000Z,22.7
2023-06-22T01:59:37.000Z,22.7
2023-06-22T02:01:20.688Z,22.7
2023-06-22T02:02:36.882Z,22.7
2023-06-22T02:03:25.000Z,22.7
2023-06-22T02:04:41.000Z,22.7
2023-06-22T02:05:58.000Z,22.6
2023-06-22T02:07:41.657Z,22.6
2023-06-22T02:08:56.867Z,22.7
2023-06-22T02:09:45.000Z,22.7
2023-06-22T02:11:29.254Z,22.7
2023-06-22T02:12:18.000Z,22.7
2023-06-22T02:14:01.641Z,22.7
2023-06-22T02:14:50.000Z,22.7
2023-06-22T02:16:06.000Z,22.7
2023-06-22T02:17:22.000Z,22.6
2023-06-22T02:18:38.000Z,22.7
2023-06-22T02:19:55.000Z,22.7
2023-06-22T02:21:11.000Z,22.7
2023-06-22T02:22:27.000Z,22.7
2023-06-22T02:23:43.000Z,22.7
2023-06-22T02:24:58.000Z,22.6
2023-06-22T02:26:15.000Z,22.6
2023-06-22T02:27:31.000Z,22.6
2023-06-22T02:28:47.000Z,22.6
2023-06-22T02:30:03.000Z,22.6
2023-06-22T02:30:44.000Z,22.5
2023-06-22T02:31:47.370Z,22.6
2023-06-22T02:32:36.000Z,22.6
2023-06-22T02:33:52.000Z,22.6
2023-06-22T02:35:08.000Z,22.5
2023-06-22T02:36:24.000Z,22.5
2023-06-22T02:38:57.000Z,22.5
2023-06-22T02:40:13.000Z,22.4
2023-06-22T02:41:28.000Z,22.3
2023-06-22T02:42:44.000Z,22.3
2023-06-22T02:44:00.000Z,22.3
2023-06-22T02:45:17.000Z,22.2
2023-06-22T02:46:33.000Z,22.2
2023-06-22T02:48:16.903Z,22.2
2023-06-22T02:49:33.338Z,22.2
2023-06-22T02:50:21.000Z,22.2
2023-06-22T02:52:05.729Z,22.3
2023-06-22T02:53:21.678Z,22.2
2023-06-22T02:54:10.000Z,22.2
2023-06-22T02:55:26.000Z,22.1
2023-06-22T02:57:10.259Z,22.2
2023-06-22T02:57:58.000Z,22.2
2023-06-22T02:59:14.000Z,22.2
2023-06-22T03:00:30.000Z,22.2
2023-06-22T03:02:14.051Z,22.3
2023-06-22T03:03:02.000Z,22.3
2023-06-22T03:04:46.438Z,22.3
2023-06-22T03:05:35.000Z,22.3
2023-06-22T03:06:51.000Z,22.3
2023-06-22T03:08:07.000Z,22.3
2023-06-22T03:09:51.212Z,22.3
2023-06-22T03:10:39.000Z,22.3
2023-06-22T03:11:56.000Z,22.3
2023-06-22T03:13:39.793Z,22.2
2023-06-22T03:14:27.000Z,22.2
2023-06-22T03:15:43.000Z,22.2
2023-06-22T03:16:59.000Z,22.2
2023-06-22T03:18:43.584Z,22.2
2023-06-22T03:19:59.777Z,22.2
2023-06-22T03:20:48.000Z,22.2
2023-06-22T03:22:04.000Z,22.2
2023-06-22T03:23:20.000Z,22.1
2023-06-22T03:24:37.000Z,22.1
2023-06-22T03:25:16.000Z,22
2023-06-22T03:25:53.000Z,22
2023-06-22T03:27:09.000Z,22
2023-06-22T03:28:25.000Z,22
2023-06-22T03:29:41.000Z,22
2023-06-22T03:30:57.000Z,22
2023-06-22T03:33:29.000Z,22
2023-06-22T03:34:10.000Z,21.8
2023-06-22T03:35:13.119Z,22
2023-06-22T03:36:29.313Z,21.9
2023-06-22T03:37:45.506Z,21.9
2023-06-22T03:38:34.000Z,21.9
2023-06-22T03:39:50.000Z,21.9
2023-06-22T03:42:22.000Z,21.8
2023-06-22T03:44:06.474Z,21.8
2023-06-22T03:44:55.000Z,21.8
2023-06-22T03:46:38.861Z,21.8
2023-06-22T03:47:54.072Z,21.8
2023-06-22T03:48:42.000Z,21.8
2023-06-22T03:50:26.458Z,21.7
2023-06-22T03:51:42.652Z,21.6
2023-06-22T03:52:31.000Z,21.6
2023-06-22T03:53:47.000Z,21.7
2023-06-22T03:55:03.000Z,21.7
2023-06-22T03:56:19.000Z,21.7
2023-06-22T03:56:59.000Z,21.8
2023-06-22T03:58:03.621Z,21.7
2023-06-22T03:58:52.000Z,21.7
2023-06-22T04:00:36.008Z,21.7
2023-06-22T04:01:24.000Z,21.7
2023-06-22T04:02:40.000Z,21.8
2023-06-22T04:05:12.000Z,21.8
2023-06-22T04:05:53.000Z,22.1
2023-06-22T04:06:55.992Z,21.8
2023-06-22T04:07:44.000Z,21.9
2023-06-22T04:09:00.000Z,22
2023-06-22T04:10:17.000Z,22
2023-06-22T04:11:33.000Z,22.1
2023-06-22T04:14:05.000Z,22.1
2023-06-22T04:15:21.000Z,22.1
2023-06-22T04:16:38.000Z,22.1
2023-06-22T04:18:21.735Z,22.1
2023-06-22T04:19:37.929Z,22.1
2023-06-22T04:20:53.139Z,22.1
2023-06-22T04:21:41.000Z,22.2
2023-06-22T04:22:58.000Z,22.2
2023-06-22T04:24:14.000Z,22.2
2023-06-22T04:24:54.000Z,22.3
2023-06-22T04:25:57.913Z,22.2
2023-06-22T04:26:46.000Z,22.3
2023-06-22T04:28:02.000Z,22.3
2023-06-22T04:29:19.000Z,22.3
2023-06-22T04:31:02.688Z,22.3
2023-06-22T04:33:35.075Z,22.3
2023-06-22T04:34:23.000Z,22.4
2023-06-22T04:35:39.000Z,22.4
2023-06-22T04:37:22.672Z,22.4
2023-06-22T04:37:35.000Z,22.3
2023-06-22T04:38:38.867Z,22.3
2023-06-22T04:39:55.061Z,22.3
2023-06-22T04:40:43.000Z,22.3
2023-06-22T04:41:59.000Z,22.4
2023-06-22T04:43:43.641Z,22.3
2023-06-22T04:45:48.000Z,22.3
2023-06-22T04:47:04.000Z,22.3
2023-06-22T04:48:20.000Z,22.3
2023-06-22T04:49:37.000Z,22.4
2023-06-22T04:50:53.000Z,22.3
2023-06-22T04:52:36.997Z,22.4
2023-06-22T04:53:24.000Z,22.4
2023-06-22T04:54:40.000Z,22.4
2023-06-22T04:55:57.000Z,22.4
2023-06-22T04:57:13.000Z,22.4
2023-06-22T04:58:29.000Z,22.5
2023-06-22T04:59:10.000Z,22.7
2023-06-22T04:59:45.000Z,22.5
2023-06-22T05:01:01.000Z,22.6
2023-06-22T05:02:18.000Z,22.6
2023-06-22T05:02:57.000Z,22.8
2023-06-22T05:03:34.000Z,22.6
2023-06-22T05:04:50.000Z,22.7
2023-06-22T05:07:22.000Z,22.8
2023-06-22T05:08:39.000Z,22.8
2023-06-22T05:11:37.934Z,22.9
2023-06-22T05:12:54.128Z,22.9
2023-06-22T05:13:42.000Z,22.9
2023-06-22T05:14:59.000Z,23
2023-06-22T05:16:15.000Z,23.1
2023-06-22T05:17:30.000Z,23.1
2023-06-22T05:19:14.118Z,23.2
2023-06-22T05:20:30.311Z,23.3
2023-06-22T05:21:46.505Z,23.2
2023-06-22T05:22:35.000Z,23.4
2023-06-22T05:23:51.000Z,23.7
2023-06-22T05:25:07.000Z,24
2023-06-22T05:26:23.000Z,24.2
2023-06-22T05:27:39.978Z,24.4
2023-06-22T05:29:23.668Z,24.4
2023-06-22T05:30:12.000Z,24.4
2023-06-22T05:31:56.056Z,24.4
2023-06-22T05:33:12.250Z,24.4
2023-06-22T05:33:59.000Z,24.4
2023-06-22T05:35:16.000Z,24.6
2023-06-22T05:36:59.847Z,24.6
2023-06-22T05:37:48.000Z,24.7
2023-06-22T05:39:04.000Z,24.7
2023-06-22T05:40:20.000Z,24.7
2023-06-22T05:41:37.000Z,24.8
2023-06-22T05:42:53.000Z,24.9
2023-06-22T05:44:37.011Z,25
2023-06-22T05:45:25.000Z,25.2
2023-06-22T05:46:41.000Z,25.3
2023-06-22T05:47:58.000Z,25.3
2023-06-22T05:49:41.786Z,25.3
2023-06-22T05:50:29.000Z,25.1
2023-06-22T05:52:13.189Z,25
2023-06-22T05:53:29.383Z,25.1
2023-06-22T05:54:18.000Z,25.2
2023-06-22T05:55:34.000Z,25.3
2023-06-22T05:57:17.964Z,25.4
2023-06-22T05:58:06.000Z,25.3
2023-06-22T05:59:50.352Z,25.2
2023-06-22T06:00:39.000Z,25.2
2023-06-22T06:01:18.000Z,24.8
2023-06-22T06:01:55.000Z,25.1
2023-06-22T06:03:38.933Z,24.8
2023-06-22T06:04:27.000Z,24.7
2023-06-22T06:05:07.000Z,25.2
2023-06-22T06:05:43.000Z,24.8
2023-06-22T06:07:26.530Z,24.8
2023-06-22T06:09:31.000Z,24.9
2023-06-22T06:11:15.110Z,25.1
2023-06-22T06:11:28.000Z,25.5
2023-06-22T06:12:44.000Z,25.5
2023-06-22T06:13:47.498Z,25.2
2023-06-22T06:14:36.000Z,25.3
2023-06-22T06:15:16.000Z,25.5
2023-06-22T06:15:52.000Z,25.5
2023-06-22T06:17:08.000Z,25.5
2023-06-22T06:20:57.000Z,25.5
2023-06-22T06:23:28.000Z,25.5
2023-06-22T06:24:44.000Z,25.4
2023-06-22T06:26:28.450Z,25.3
2023-06-22T06:27:17.000Z,25.2
2023-06-22T06:28:33.000Z,25.3
2023-06-22T06:30:17.030Z,25.3
2023-06-22T06:31:33.224Z,25.2
2023-06-22T06:31:46.000Z,25.1
2023-06-22T06:32:21.000Z,25
2023-06-22T06:33:38.000Z,25
2023-06-22T06:34:54.000Z,25
2023-06-22T06:36:38.000Z,25.1
2023-06-22T06:37:54.193Z,25
2023-06-22T06:40:25.597Z,25.1
2023-06-22T06:41:41.790Z,24.9
2023-06-22T06:42:30.000Z,24.9
2023-06-22T06:43:46.000Z,24.9
2023-06-22T06:45:02.000Z,24.9
2023-06-22T06:45:43.000Z,25.6
2023-06-22T06:46:19.000Z,24.9
2023-06-22T06:47:35.000Z,25.1
2023-06-22T06:49:18.952Z,25.6
2023-06-22T06:50:07.000Z,26.5
2023-06-22T06:51:51.339Z,26.1
2023-06-22T06:54:23.726Z,25.3
2023-06-22T06:55:12.000Z,25.2
2023-06-22T06:56:27.000Z,25.1
2023-06-22T06:57:08.000Z,25.7
2023-06-22T06:57:43.000Z,25.2
2023-06-22T06:58:24.000Z,25.8
2023-06-22T06:58:59.000Z,25.3
2023-06-22T06:59:40.000Z,26.1
2023-06-22T07:00:16.000Z,25.3
2023-06-22T07:01:32.000Z,25.3
2023-06-22T07:02:48.000Z,25.4
2023-06-22T07:08:20.873Z,26.2
2023-06-22T07:09:37.067Z,26.2
2023-06-22T07:10:25.000Z,26.1
2023-06-22T07:11:05.000Z,26.5
2023-06-22T07:11:41.000Z,26
2023-06-22T07:12:57.000Z,26.1
2023-06-22T07:14:13.000Z,26.3
2023-06-22T07:15:29.000Z,26.4
2023-06-22T07:17:13.245Z,26.4
2023-06-22T07:19:18.000Z,26.6
2023-06-22T07:21:01.826Z,26.8
2023-06-22T07:21:14.000Z,27.8
2023-06-22T07:21:50.000Z,27
2023-06-22T07:23:34.214Z,27.2
2023-06-22T07:24:22.000Z,27.4
2023-06-22T07:26:06.601Z,27.5
2023-06-22T07:26:55.000Z,27.6
2023-06-22T07:29:54.199Z,27.9
2023-06-22T07:30:42.000Z,28.1
2023-06-22T07:31:59.000Z,28.2
2023-06-22T07:33:42.780Z,28.2
2023-06-22T07:34:31.000Z,28.1
2023-06-22T07:35:47.000Z,28
2023-06-22T07:37:03.000Z,28
2023-06-22T07:38:47.556Z,27.8
2023-06-22T07:39:36.000Z,27.8
2023-06-22T07:40:52.000Z,27.7
2023-06-22T07:42:08.000Z,27.8
2023-06-22T07:43:24.000Z,27.9
2023-06-22T07:44:40.000Z,28
2023-06-22T07:46:23.736Z,28
2023-06-22T07:47:39.930Z,28
2023-06-22T07:48:56.123Z,28.1
2023-06-22T07:49:44.000Z,28.2
2023-06-22T07:51:28.511Z,28.2
2023-06-22T07:52:17.000Z,28.4
2023-06-22T07:53:33.000Z,28.3
2023-06-22T07:54:49.000Z,28
2023-06-22T07:56:05.000Z,27.9
2023-06-22T07:57:21.000Z,28
2023-06-22T07:58:01.000Z,27.7
2023-06-22T07:58:38.000Z,28
2023-06-22T07:59:54.000Z,27.8
2023-06-22T08:01:10.000Z,27.7
2023-06-22T08:02:25.000Z,27.6
2023-06-22T08:03:41.000Z,27.7
2023-06-22T08:04:22.000Z,28.1
2023-06-22T08:06:41.853Z,28
2023-06-22T08:07:58.047Z,28.2
2023-06-22T08:08:46.000Z,28.3
2023-06-22T08:10:30.435Z,28.2
2023-06-22T08:11:58.000Z,28.1
2023-06-22T08:12:35.000Z,28.3
2023-06-22T08:13:51.000Z,28.4
2023-06-22T08:15:07.000Z,28.5
2023-06-22T08:16:51.405Z,28.4
2023-06-22T08:18:07.599Z,28.3
2023-06-22T08:20:39.003Z,27.9
2023-06-22T08:21:55.197Z,27.9
2023-06-22T08:22:43.000Z,28.1
2023-06-22T08:24:00.000Z,28.1
2023-06-22T08:25:16.000Z,28
2023-06-22T08:25:56.000Z,28.5
2023-06-22T08:26:32.000Z,28.2
2023-06-22T08:27:48.000Z,28.5
2023-06-22T08:28:28.000Z,28.7
2023-06-22T08:29:32.605Z,28.6
2023-06-22T08:30:20.000Z,28.4
2023-06-22T08:32:04.748Z,28.4
2023-06-22T08:34:09.000Z,28.7
2023-06-22T08:36:40.000Z,28.6
2023-06-22T08:37:57.000Z,28.4
2023-06-22T08:39:41.180Z,28.4
2023-06-22T08:40:57.122Z,28.6
2023-06-22T08:41:45.000Z,28.7
2023-06-22T08:43:01.000Z,28.9
2023-06-22T08:44:18.000Z,29.1
2023-06-22T08:45:34.000Z,29.2
2023-06-22T08:47:18.093Z,29.3
2023-06-22T08:48:34.288Z,29.3
2023-06-22T08:49:22.000Z,29.3
2023-06-22T08:50:39.000Z,29.4
2023-06-22T08:51:54.000Z,29.6
2023-06-22T08:53:10.000Z,29.6
2023-06-22T08:54:54.274Z,29.5
2023-06-22T08:55:42.000Z,29.6
2023-06-22T08:56:59.000Z,29.4
2023-06-22T08:58:15.000Z,29.4
2023-06-22T08:59:31.000Z,29.4
2023-06-22T09:01:15.243Z,29.4
2023-06-22T09:02:31.437Z,29.4
2023-06-22T09:03:47.631Z,29.6
2023-06-22T09:05:03.825Z,29.6
2023-06-22T09:05:52.000Z,29.9
2023-06-22T09:07:08.000Z,30
2023-06-22T09:08:23.000Z,30.1
2023-06-22T09:10:07.618Z,29.9
2023-06-22T09:11:23.812Z,30.1
2023-06-22T09:12:40.005Z,30
2023-06-22T09:13:28.000Z,30.2
2023-06-22T09:14:44.000Z,30.2
2023-06-22T09:16:00.000Z,30.1
2023-06-22T09:17:17.000Z,30.2
2023-06-22T09:18:33.000Z,30.3
2023-06-22T09:20:17.169Z,30.3
2023-06-22T09:21:05.000Z,30.4
2023-06-22T09:22:49.557Z,30.4
2023-06-22T09:24:05.751Z,30.5
2023-06-22T09:24:53.000Z,30.7
2023-06-22T09:26:09.000Z,30.6
2023-06-22T09:27:25.000Z,30.6
2023-06-22T09:28:41.000Z,30.7
2023-06-22T09:29:58.000Z,31
2023-06-22T09:31:14.000Z,31.2
2023-06-22T09:32:29.000Z,31.3
2023-06-22T09:34:13.587Z,31.3
2023-06-22T09:35:01.000Z,31
2023-06-22T09:36:45.728Z,31.1
2023-06-22T09:37:34.000Z,31.3
2023-06-22T09:38:50.000Z,31.3
2023-06-22T09:40:34.310Z,31.4
2023-06-22T09:41:50.505Z,30.9
2023-06-22T09:42:39.000Z,30.7
2023-06-22T09:44:22.892Z,30.5
2023-06-22T09:45:11.000Z,30.5
2023-06-22T09:46:55.280Z,30.5
2023-06-22T09:48:11.474Z,30.5
2023-06-22T09:48:59.000Z,30.3
2023-06-22T09:50:15.000Z,30.1
2023-06-22T09:51:59.072Z,30.1
2023-06-22T09:52:47.000Z,30.1
2023-06-22T09:54:03.000Z,29.9
2023-06-22T09:55:47.653Z,29.9
2023-06-22T09:56:36.000Z,29.9
2023-06-22T09:57:16.000Z,29.6
2023-06-22T09:57:52.000Z,29.7
2023-06-22T09:59:08.000Z,29.8
2023-06-22T10:00:24.000Z,29.7
2023-06-22T10:01:41.000Z,29.6
2023-06-22T10:02:57.000Z,29.7
2023-06-22T10:05:28.000Z,29.6
2023-06-22T10:07:12.414Z,29.5
2023-06-22T10:08:00.000Z,29.4
2023-06-22T10:09:17.000Z,29.3
2023-06-22T10:11:00.996Z,29.2
2023-06-22T10:11:49.000Z,29.2
2023-06-22T10:13:05.000Z,29
2023-06-22T10:14:21.000Z,28.9
2023-06-22T10:15:01.000Z,28.6
2023-06-22T10:16:05.773Z,28.9
2023-06-22T10:16:54.000Z,28.7
2023-06-22T10:18:38.162Z,28.5
2023-06-22T10:19:26.000Z,28.5
2023-06-22T10:20:42.000Z,28.5
2023-06-22T10:23:14.000Z,28.6
2023-06-22T10:24:58.148Z,28.5
2023-06-22T10:25:46.000Z,28.5
2023-06-22T10:27:02.000Z,28.4
2023-06-22T10:28:19.000Z,28.4
2023-06-22T10:29:35.000Z,28.4
2023-06-22T10:31:19.117Z,28.4
2023-06-22T10:32:07.000Z,28.4
2023-06-22T10:32:47.000Z,27.2
2023-06-22T10:33:23.000Z,28.2
2023-06-22T10:34:40.000Z,28.1
2023-06-22T10:36:23.892Z,28
2023-06-22T10:37:12.000Z,27.7
2023-06-22T10:38:55.297Z,27.5
2023-06-22T10:41:27.683Z,26.9
2023-06-22T10:42:16.000Z,26.8
2023-06-22T10:43:32.000Z,26.7
2023-06-22T10:44:48.000Z,26.2
2023-06-22T10:46:32.459Z,26
2023-06-22T10:46:45.000Z,25.2
2023-06-22T10:47:48.652Z,25.7
2023-06-22T10:49:04.846Z,25.6
2023-06-22T10:49:53.000Z,25.5
2023-06-22T10:51:37.235Z,25.4
2023-06-22T10:52:53.430Z,25.3
2023-06-22T10:55:24.836Z,25.1
2023-06-22T10:56:41.031Z,25.3
2023-06-22T10:57:57.226Z,25.3
2023-06-22T10:59:13.421Z,25.3
2023-06-22T11:00:01.000Z,25.3
2023-06-22T11:01:45.812Z,25.1
2023-06-22T11:02:34.000Z,24.9
2023-06-22T11:04:18.201Z,24.9
2023-06-22T11:05:06.000Z,24.8
2023-06-22T11:06:50.591Z,24.8
2023-06-22T11:08:06.786Z,24.7
2023-06-22T11:08:18.000Z,25
2023-06-22T11:08:55.000Z,24.8
2023-06-22T11:10:39.176Z,24.9
2023-06-22T11:11:54.388Z,25
2023-06-22T11:13:10.583Z,25
2023-06-22T11:14:26.779Z,25
2023-06-22T11:14:39.000Z,24.5
2023-06-22T11:16:59.169Z,25.1
2023-06-22T11:18:15.364Z,24.8
2023-06-22T11:18:28.000Z,24.7
2023-06-22T11:19:31.560Z,24.8
2023-06-22T11:19:44.000Z,24.7
2023-06-22T11:20:47.756Z,24.6
2023-06-22T11:23:20.147Z,24.5
2023-06-22T11:24:36.343Z,24.6
2023-06-22T11:28:23.945Z,24.8
2023-06-22T11:28:36.000Z,25.7
2023-06-22T11:29:40.140Z,24.8
2023-06-22T11:29:53.000Z,26
2023-06-22T11:30:28.000Z,24.9
2023-06-22T11:32:12.531Z,25
2023-06-22T11:32:25.000Z,26.4
2023-06-22T11:33:28.726Z,24.9
2023-06-22T11:34:44.922Z,25.3
2023-06-22T11:38:33.509Z,26.2
2023-06-22T11:41:05.900Z,26.7
2023-06-22T11:42:22.096Z,26.7
2023-06-22T11:43:38.292Z,26.9
2023-06-22T11:44:53.504Z,27
2023-06-22T11:46:09.698Z,26.9
2023-06-22T11:47:25.894Z,26.8
2023-06-22T11:48:42.090Z,26.6
2023-06-22T11:49:58.286Z,26.6
2023-06-22T11:50:46.000Z,26.3
2023-06-22T11:51:27.000Z,25.9
2023-06-22T11:52:03.000Z,26.1
2023-06-22T11:53:19.000Z,25.7
2023-06-22T11:55:03.069Z,25.8
2023-06-22T11:55:14.000Z,25.8
2023-06-22T11:56:19.264Z,25.8
2023-06-22T11:57:35.460Z,25.9
2023-06-22T12:00:07.851Z,25.8
2023-06-22T12:00:55.000Z,26
2023-06-22T12:03:27.000Z,25.9
2023-06-22T12:05:11.650Z,25.8
2023-06-22T12:06:00.000Z,25.9
2023-06-22T12:07:44.042Z,25.8
2023-06-22T12:09:00.237Z,25.8
2023-06-22T12:09:48.000Z,25.7
2023-06-22T12:10:28.000Z,25.1
2023-06-22T12:11:32.628Z,25.6
2023-06-22T12:12:48.824Z,25.4
2023-06-22T12:13:00.000Z,25.3
2023-06-22T12:14:05.019Z,25.3
2023-06-22T12:15:21.216Z,25.1
2023-06-22T12:16:37.411Z,25.1
2023-06-22T12:18:41.000Z,25.1
2023-06-22T12:21:13.000Z,25.5
2023-06-22T12:22:57.404Z,25.5
2023-06-22T12:24:13.600Z,25.6
2023-06-22T12:25:29.796Z,25.6
2023-06-22T12:26:18.000Z,26
2023-06-22T12:28:02.187Z,26.4
2023-06-22T12:29:18.382Z,26.7
2023-06-22T12:30:34.578Z,26.7
2023-06-22T12:31:23.000Z,26.4
2023-06-22T12:32:39.000Z,26.4
2023-06-22T12:33:54.000Z,26.6
2023-06-22T12:35:38.377Z,26.7
2023-06-22T12:36:26.000Z,26.5
2023-06-22T12:38:10.769Z,26.5
2023-06-22T12:38:23.000Z,26.6
2023-06-22T12:38:59.000Z,26.6
2023-06-22T12:40:15.000Z,26.8
2023-06-22T12:41:31.000Z,26.9
2023-06-22T12:43:15.551Z,26.8
2023-06-22T12:44:31.747Z,26.8
2023-06-22T12:47:04.138Z,26.7
2023-06-22T12:48:20.334Z,26.8
2023-06-22T12:49:36.530Z,26.8
2023-06-22T12:50:51.742Z,26.7
2023-06-22T12:51:40.000Z,26.7
2023-06-22T12:52:56.000Z,26.8
2023-06-22T12:54:12.000Z,26.8
2023-06-22T12:55:28.000Z,26.8
2023-06-22T12:56:45.000Z,26.9
2023-06-22T12:58:28.916Z,27.1
2023-06-22T12:59:17.000Z,27.1
2023-06-22T13:01:01.307Z,26.9
2023-06-22T13:01:49.000Z,26.9
2023-06-22T13:02:29.000Z,27.5
2023-06-22T13:03:06.000Z,26.8
2023-06-22T13:04:22.000Z,27
2023-06-22T13:06:06.091Z,27.2
2023-06-22T13:06:53.000Z,27.2
2023-06-22T13:08:37.498Z,27.4
2023-06-22T13:10:42.000Z,27.4
2023-06-22T13:12:26.085Z,27.2
2023-06-22T13:13:42.282Z,27.1
2023-06-22T13:14:30.000Z,27.3
2023-06-22T13:16:14.673Z,27.5
2023-06-22T13:17:30.869Z,27.6
2023-06-22T13:18:19.000Z,27.7
2023-06-22T13:18:58.000Z,27.9
2023-06-22T13:20:03.260Z,27.9
2023-06-22T13:21:19.456Z,27.9
2023-06-22T13:22:07.000Z,27.9
2023-06-22T13:23:23.000Z,27.7
2023-06-22T13:24:39.000Z,27.8
2023-06-22T13:27:11.000Z,27.9
2023-06-22T13:28:55.646Z,27.8
2023-06-22T13:30:11.842Z,27.7
2023-06-22T13:31:28.038Z,27.9
2023-06-22T13:31:40.000Z,27.7
2023-06-22T13:32:16.000Z,27.7
2023-06-22T13:34:00.430Z,27.8
2023-06-22T13:35:16.625Z,27.6
2023-06-22T13:36:05.000Z,27.5
2023-06-22T13:36:44.000Z,27.8
2023-06-22T13:37:21.000Z,27.5
2023-06-22T13:40:20.425Z,27.8
2023-06-22T13:41:36.621Z,27.7
2023-06-22T13:42:25.000Z,27.7
2023-06-22T13:44:57.000Z,27.8
2023-06-22T13:46:13.000Z,27.6
2023-06-22T13:47:28.000Z,27.8
2023-06-22T13:48:45.000Z,27.8
2023-06-22T13:50:01.000Z,27.8
2023-06-22T13:51:45.209Z,27.9
2023-06-22T13:53:01.405Z,27.7
2023-06-22T13:54:17.601Z,27.6
2023-06-22T13:55:06.000Z,27.6
2023-06-22T13:56:49.993Z,27.5
2023-06-22T13:57:01.000Z,27.7
2023-06-22T13:57:38.000Z,27.6
2023-06-22T13:59:22.384Z,27.7
2023-06-22T14:00:10.000Z,27.5
2023-06-22T14:00:50.000Z,27.1
2023-06-22T14:01:54.776Z,27.6
2023-06-22T14:02:06.000Z,27.2
2023-06-22T14:03:10.971Z,27.8
2023-06-22T14:05:14.000Z,27.6
2023-06-22T14:06:58.576Z,27.3
2023-06-22T14:10:47.163Z,27.1
2023-06-22T14:12:03.359Z,27.1
2023-06-22T14:13:19.554Z,27.1
2023-06-22T14:14:35.750Z,27
2023-06-22T14:15:24.000Z,26.9
2023-06-22T14:16:40.000Z,26.9
2023-06-22T14:17:56.000Z,26.9
2023-06-22T14:19:12.000Z,26.8
2023-06-22T14:20:55.745Z,26.8
2023-06-22T14:21:44.000Z,26.8
2023-06-22T14:22:24.000Z,26.4
2023-06-22T14:23:00.000Z,26.8
2023-06-22T14:24:16.000Z,26.7
2023-06-22T14:25:32.000Z,26.6
2023-06-22T14:26:13.000Z,26.2
2023-06-22T14:26:48.000Z,26.6
2023-06-22T14:28:05.000Z,26.6
2023-06-22T14:30:37.000Z,26.4
2023-06-22T14:31:53.000Z,26.3
2023-06-22T14:34:26.000Z,25.9
2023-06-22T14:35:05.000Z,24.2
2023-06-22T14:36:10.094Z,25.7
2023-06-22T14:37:25.306Z,25.3
2023-06-22T14:38:13.000Z,24.9
2023-06-22T14:39:57.958Z,24.4
2023-06-22T14:40:46.000Z,24.2
2023-06-22T14:43:46.284Z,24.1
2023-06-22T14:43:58.000Z,24.3
2023-06-22T14:45:02.480Z,24.2
2023-06-22T14:46:18.675Z,24.2
2023-06-22T14:47:34.871Z,24.3
2023-06-22T14:47:46.000Z,24.3
2023-06-22T14:48:51.066Z,24.4
2023-06-22T14:50:07.262Z,24.3
2023-06-22T14:52:39.654Z,24.3
2023-06-22T14:53:54.865Z,24.3
2023-06-22T14:55:59.000Z,24.3
2023-06-22T14:57:43.452Z,24.2
2023-06-22T14:58:31.000Z,24.2
2023-06-22T15:00:15.843Z,24.2
2023-06-22T15:01:32.039Z,24.3
2023-06-22T15:02:48.235Z,24.3
2023-06-22T15:04:04.430Z,24.1
2023-06-22T15:05:20.627Z,24
2023-06-22T15:06:36.822Z,24
2023-06-22T15:07:53.018Z,23.9
2023-06-22T15:09:09.214Z,23.8
2023-06-22T15:10:24.426Z,23.6
2023-06-22T15:10:37.000Z,23.8
2023-06-22T15:11:12.000Z,23.5
2023-06-22T15:12:56.818Z,23.6
2023-06-22T15:14:13.013Z,23.7
2023-06-22T15:15:29.210Z,23.8
2023-06-22T15:16:45.405Z,23.8
2023-06-22T15:18:50.000Z,23.6
2023-06-22T15:20:06.000Z,23.6
2023-06-22T15:21:50.189Z,23.7
2023-06-22T15:23:06.385Z,23.6
2023-06-22T15:23:54.000Z,23.4
2023-06-22T15:25:38.776Z,23.4
2023-06-22T15:26:53.988Z,23.5
2023-06-22T15:28:10.184Z,23.4
2023-06-22T15:29:26.379Z,23.4
2023-06-22T15:30:42.576Z,23.4
2023-06-22T15:31:58.771Z,23.4
2023-06-22T15:33:14.967Z,23.4
2023-06-22T15:34:31.162Z,23.4
2023-06-22T15:35:47.360Z,23.4
2023-06-22T15:37:03.555Z,23.4
2023-06-22T15:38:19.752Z,23.3
2023-06-22T15:39:35.947Z,23.3
2023-06-22T15:40:52.143Z,23.3
2023-06-22T15:42:08.339Z,23.4
2023-06-22T15:42:55.000Z,23.4
2023-06-22T15:43:36.000Z,23.3
2023-06-22T15:44:39.747Z,23.4
2023-06-22T15:45:55.944Z,23.3
2023-06-22T15:46:08.000Z,23.1
2023-06-22T15:46:44.000Z,23.2
2023-06-22T15:48:28.335Z,23.2
2023-06-22T15:49:16.000Z,23.2
2023-06-22T15:49:57.000Z,23.2
2023-06-22T15:52:16.922Z,23.2
2023-06-22T15:54:49.314Z,23.2
2023-06-22T15:56:05.510Z,23.2
2023-06-22T15:58:37.901Z,23.2
2023-06-22T15:58:49.000Z,23.1
2023-06-22T15:59:53.114Z,23.2
2023-06-22T16:01:09.310Z,23.1
2023-06-22T16:01:57.000Z,23.2
2023-06-22T16:03:13.000Z,23.2
2023-06-22T16:04:57.897Z,23.1
2023-06-22T16:07:30.290Z,23.1
2023-06-22T16:07:42.000Z,23.3
2023-06-22T16:08:46.486Z,23.2
2023-06-22T16:10:02.682Z,23.1
2023-06-22T16:10:51.000Z,23.2
2023-06-22T16:12:07.000Z,23.2
2023-06-22T16:13:23.000Z,23.3
2023-06-22T16:14:02.000Z,23.5
2023-06-22T16:16:22.680Z,23.4
2023-06-22T16:17:38.875Z,23.4
2023-06-22T16:17:51.000Z,23.7
2023-06-22T16:18:55.072Z,23.4
2023-06-22T16:20:11.267Z,23.5
2023-06-22T16:21:40.000Z,23.7
2023-06-22T16:22:43.658Z,23.6
2023-06-22T16:23:59.856Z,23.6
2023-06-22T16:25:27.000Z,23.7
2023-06-22T16:26:32.247Z,23.7
2023-06-22T16:27:48.443Z,23.7
2023-06-22T16:29:16.000Z,23.8
2023-06-22T16:30:20.834Z,23.8
2023-06-22T16:31:37.031Z,23.7
2023-06-22T16:34:08.439Z,23.7
2023-06-22T16:35:24.634Z,23.7
2023-06-22T16:35:37.000Z,23.9
2023-06-22T16:37:57.026Z,23.8
2023-06-22T16:38:09.000Z,23.9
2023-06-22T16:39:13.223Z,23.8
2023-06-22T16:40:29.419Z,23.9
2023-06-22T16:41:45.616Z,23.9
2023-06-22T16:44:18.009Z,23.9
2023-06-22T16:44:29.000Z,24
2023-06-22T16:46:50.400Z,23.9
2023-06-22T16:48:06.596Z,24
2023-06-22T16:48:54.000Z,24.1
2023-06-22T16:50:38.005Z,24.1
2023-06-22T16:53:10.397Z,24
2023-06-22T16:53:22.000Z,24.4
2023-06-22T16:54:26.595Z,24.1
2023-06-22T16:55:42.790Z,24.2
2023-06-22T16:56:58.987Z,24.3
2023-06-22T16:57:47.000Z,24.2
2023-06-22T16:59:31.380Z,24.3